sensor_id;sensor_type;location;lat;lon;timestamp;pressure;altitude;pressure_sealevel;temperature;humidity
59831;BME280;45711;50.108;13.712;2023-01-19T00:01:02;96513.13;;;-2.33;94.97
59831;BME280;45711;50.108;13.712;2023-01-19T00:03:28;96511.44;;;-2.39;96.10
59831;BME280;45711;50.108;13.712;2023-01-19T00:05:53;96513.50;;;-2.41;96.25
59831;BME280;45711;50.108;13.712;2023-01-19T00:08:19;96518.47;;;-2.28;95.73
59831;BME280;45711;50.108;13.712;2023-01-19T00:10:47;96523.06;;;-2.35;95.21
59831;BME280;45711;50.108;13.712;2023-01-19T00:13:14;96522.59;;;-2.32;95.67
59831;BME280;45711;50.108;13.712;2023-01-19T00:15:42;96533.78;;;-2.48;95.64
59831;BME280;45711;50.108;13.712;2023-01-19T00:18:08;96531.81;;;-2.41;95.70
59831;BME280;45711;50.108;13.712;2023-01-19T00:20:34;96534.94;;;-2.56;95.16
59831;BME280;45711;50.108;13.712;2023-01-19T00:23:02;96533.88;;;-2.66;96.13
59831;BME280;45711;50.108;13.712;2023-01-19T00:25:29;96541.63;;;-2.83;95.62
59831;BME280;45711;50.108;13.712;2023-01-19T00:28:06;96548.66;;;-2.84;96.07
59831;BME280;45711;50.108;13.712;2023-01-19T00:30:34;96551.28;;;-2.84;95.93
59831;BME280;45711;50.108;13.712;2023-01-19T00:32:59;96561.53;;;-2.70;95.71
59831;BME280;45711;50.108;13.712;2023-01-19T00:35:25;96565.09;;;-2.76;95.76
59831;BME280;45711;50.108;13.712;2023-01-19T00:37:51;96580.34;;;-2.62;95.66
59831;BME280;45711;50.108;13.712;2023-01-19T00:40:17;96587.19;;;-2.72;94.46
59831;BME280;45711;50.108;13.712;2023-01-19T00:42:42;96580.34;;;-2.73;94.54
59831;BME280;45711;50.108;13.712;2023-01-19T00:45:12;96585.25;;;-2.65;94.77
59831;BME280;45711;50.108;13.712;2023-01-19T00:47:38;96581.91;;;-2.96;94.22
59831;BME280;45711;50.108;13.712;2023-01-19T00:50:05;96585.53;;;-3.09;94.83
59831;BME280;45711;50.108;13.712;2023-01-19T00:52:31;96583.06;;;-3.34;94.85
59831;BME280;45711;50.108;13.712;2023-01-19T00:54:56;96581.75;;;-3.13;95.88
59831;BME280;45711;50.108;13.712;2023-01-19T00:57:22;96573.25;;;-3.38;95.38
59831;BME280;45711;50.108;13.712;2023-01-19T00:59:48;96582.13;;;-3.39;95.39
59831;BME280;45711;50.108;13.712;2023-01-19T01:02:15;96581.59;;;-3.60;94.66
59831;BME280;45711;50.108;13.712;2023-01-19T01:04:40;96577.59;;;-3.62;95.68
59831;BME280;45711;50.108;13.712;2023-01-19T01:07:06;96580.34;;;-3.57;95.32
59831;BME280;45711;50.108;13.712;2023-01-19T01:09:32;96577.91;;;-3.40;95.56
59831;BME280;45711;50.108;13.712;2023-01-19T01:11:57;96584.56;;;-3.56;94.67
59831;BME280;45711;50.108;13.712;2023-01-19T01:14:23;96583.72;;;-3.68;95.25
59831;BME280;45711;50.108;13.712;2023-01-19T01:16:49;96590.16;;;-3.71;95.33
59831;BME280;45711;50.108;13.712;2023-01-19T01:19:16;96598.47;;;-3.74;95.16
59831;BME280;45711;50.108;13.712;2023-01-19T01:21:42;96602.88;;;-3.74;94.79
59831;BME280;45711;50.108;13.712;2023-01-19T01:24:08;96601.50;;;-3.77;94.66
59831;BME280;45711;50.108;13.712;2023-01-19T01:26:34;96596.06;;;-3.75;94.83
59831;BME280;45711;50.108;13.712;2023-01-19T01:28:59;96607.59;;;-3.83;95.30
59831;BME280;45711;50.108;13.712;2023-01-19T01:31:25;96604.09;;;-3.59;95.79
59831;BME280;45711;50.108;13.712;2023-01-19T01:33:51;96604.94;;;-3.46;95.00
59831;BME280;45711;50.108;13.712;2023-01-19T01:36:18;96603.66;;;-3.56;94.70
59831;BME280;45711;50.108;13.712;2023-01-19T01:38:45;96607.00;;;-3.67;94.21
59831;BME280;45711;50.108;13.712;2023-01-19T01:41:10;96612.91;;;-4.08;95.70
59831;BME280;45711;50.108;13.712;2023-01-19T01:43:45;96612.63;;;-4.00;96.65
59831;BME280;45711;50.108;13.712;2023-01-19T01:46:11;96618.13;;;-3.90;96.20
59831;BME280;45711;50.108;13.712;2023-01-19T01:48:41;96618.41;;;-3.80;95.48
59831;BME280;45711;50.108;13.712;2023-01-19T01:51:09;96622.34;;;-3.70;95.79
59831;BME280;45711;50.108;13.712;2023-01-19T01:53:54;96612.41;;;-3.80;95.25
59831;BME280;45711;50.108;13.712;2023-01-19T01:56:26;96616.09;;;-3.88;95.29
59831;BME280;45711;50.108;13.712;2023-01-19T01:58:57;96624.81;;;-3.75;95.55
59831;BME280;45711;50.108;13.712;2023-01-19T02:01:23;96629.34;;;-3.83;95.86
59831;BME280;45711;50.108;13.712;2023-01-19T02:04:08;96628.22;;;-3.93;94.50
59831;BME280;45711;50.108;13.712;2023-01-19T02:06:34;96629.16;;;-4.24;94.93
59831;BME280;45711;50.108;13.712;2023-01-19T02:09:20;96639.38;;;-4.23;95.19
59831;BME280;45711;50.108;13.712;2023-01-19T02:12:06;96645.09;;;-4.33;95.22
59831;BME280;45711;50.108;13.712;2023-01-19T02:14:50;96644.25;;;-4.26;95.65
59831;BME280;45711;50.108;13.712;2023-01-19T02:17:16;96642.72;;;-4.16;94.85
59831;BME280;45711;50.108;13.712;2023-01-19T02:19:42;96640.78;;;-4.45;94.97
59831;BME280;45711;50.108;13.712;2023-01-19T02:22:11;96650.75;;;-4.36;95.59
59831;BME280;45711;50.108;13.712;2023-01-19T02:24:47;96650.63;;;-4.22;95.24
59831;BME280;45711;50.108;13.712;2023-01-19T02:27:14;96653.69;;;-4.07;94.26
59831;BME280;45711;50.108;13.712;2023-01-19T02:29:41;96660.66;;;-4.01;95.81
59831;BME280;45711;50.108;13.712;2023-01-19T02:32:09;96669.59;;;-4.09;95.06
59831;BME280;45711;50.108;13.712;2023-01-19T02:34:35;96667.00;;;-4.34;95.26
59831;BME280;45711;50.108;13.712;2023-01-19T02:37:02;96678.25;;;-4.33;95.11
59831;BME280;45711;50.108;13.712;2023-01-19T02:39:37;96679.47;;;-4.36;94.62
59831;BME280;45711;50.108;13.712;2023-01-19T02:42:07;96675.59;;;-4.26;95.25
59831;BME280;45711;50.108;13.712;2023-01-19T02:44:35;96678.59;;;-4.48;94.66
59831;BME280;45711;50.108;13.712;2023-01-19T02:47:01;96688.69;;;-4.58;94.85
59831;BME280;45711;50.108;13.712;2023-01-19T02:49:28;96676.31;;;-4.19;95.84
59831;BME280;45711;50.108;13.712;2023-01-19T02:51:54;96680.44;;;-4.55;94.91
59831;BME280;45711;50.108;13.712;2023-01-19T02:54:32;96671.56;;;-4.47;96.61
59831;BME280;45711;50.108;13.712;2023-01-19T02:57:27;96680.22;;;-4.53;95.45
59831;BME280;45711;50.108;13.712;2023-01-19T03:00:06;96682.47;;;-4.32;95.49
59831;BME280;45711;50.108;13.712;2023-01-19T03:02:47;96692.69;;;-4.56;95.09
59831;BME280;45711;50.108;13.712;2023-01-19T03:05:36;96683.19;;;-4.75;95.12
59831;BME280;45711;50.108;13.712;2023-01-19T03:08:21;96686.06;;;-4.83;95.47
59831;BME280;45711;50.108;13.712;2023-01-19T03:11:00;96690.59;;;-4.72;95.32
59831;BME280;45711;50.108;13.712;2023-01-19T03:13:31;96686.63;;;-4.74;95.08
59831;BME280;45711;50.108;13.712;2023-01-19T03:16:04;96695.00;;;-4.66;95.44
59831;BME280;45711;50.108;13.712;2023-01-19T03:18:32;96689.94;;;-4.61;94.63
59831;BME280;45711;50.108;13.712;2023-01-19T03:21:04;96695.56;;;-4.64;94.63
59831;BME280;45711;50.108;13.712;2023-01-19T03:23:31;96682.72;;;-4.65;94.52
59831;BME280;45711;50.108;13.712;2023-01-19T03:25:59;96689.56;;;-4.71;93.38
59831;BME280;45711;50.108;13.712;2023-01-19T03:28:29;96689.16;;;-4.68;93.86
59831;BME280;45711;50.108;13.712;2023-01-19T03:30:57;96687.59;;;-4.75;94.74
59831;BME280;45711;50.108;13.712;2023-01-19T03:33:28;96690.34;;;-4.95;93.69
59831;BME280;45711;50.108;13.712;2023-01-19T03:35:57;96677.88;;;-4.93;94.90
59831;BME280;45711;50.108;13.712;2023-01-19T03:38:30;96694.25;;;-4.80;95.08
59831;BME280;45711;50.108;13.712;2023-01-19T03:41:04;96688.41;;;-5.07;93.54
59831;BME280;45711;50.108;13.712;2023-01-19T03:43:32;96691.56;;;-4.98;93.83
59831;BME280;45711;50.108;13.712;2023-01-19T03:46:00;96682.16;;;-5.06;93.10
59831;BME280;45711;50.108;13.712;2023-01-19T03:48:27;96688.00;;;-5.10;93.93
59831;BME280;45711;50.108;13.712;2023-01-19T03:50:54;96684.53;;;-4.97;93.92
59831;BME280;45711;50.108;13.712;2023-01-19T03:53:20;96689.34;;;-4.94;93.13
59831;BME280;45711;50.108;13.712;2023-01-19T03:55:49;96688.94;;;-4.91;94.00
59831;BME280;45711;50.108;13.712;2023-01-19T03:58:15;96684.03;;;-5.13;93.53
59831;BME280;45711;50.108;13.712;2023-01-19T04:00:43;96690.22;;;-5.07;94.14
59831;BME280;45711;50.108;13.712;2023-01-19T04:03:12;96682.78;;;-5.10;94.00
59831;BME280;45711;50.108;13.712;2023-01-19T04:05:38;96685.84;;;-5.13;93.25
59831;BME280;45711;50.108;13.712;2023-01-19T04:08:04;96689.31;;;-5.26;93.60
59831;BME280;45711;50.108;13.712;2023-01-19T04:10:30;96685.69;;;-5.32;93.74
59831;BME280;45711;50.108;13.712;2023-01-19T04:12:56;96679.91;;;-5.40;94.42
59831;BME280;45711;50.108;13.712;2023-01-19T04:15:23;96684.91;;;-5.32;94.37
59831;BME280;45711;50.108;13.712;2023-01-19T04:17:50;96684.56;;;-5.42;94.00
59831;BME280;45711;50.108;13.712;2023-01-19T04:20:16;96674.34;;;-5.50;94.11
59831;BME280;45711;50.108;13.712;2023-01-19T04:22:42;96674.53;;;-5.45;94.43
59831;BME280;45711;50.108;13.712;2023-01-19T04:25:09;96680.91;;;-5.35;93.46
59831;BME280;45711;50.108;13.712;2023-01-19T04:27:34;96687.34;;;-5.37;93.61
59831;BME280;45711;50.108;13.712;2023-01-19T04:30:00;96683.13;;;-5.38;93.89
59831;BME280;45711;50.108;13.712;2023-01-19T04:32:26;96674.53;;;-5.39;93.72
59831;BME280;45711;50.108;13.712;2023-01-19T04:34:53;96679.00;;;-5.52;93.39
59831;BME280;45711;50.108;13.712;2023-01-19T04:37:19;96671.34;;;-5.54;92.96
59831;BME280;45711;50.108;13.712;2023-01-19T04:39:44;96677.59;;;-5.55;94.06
59831;BME280;45711;50.108;13.712;2023-01-19T04:42:10;96665.81;;;-5.71;93.61
59831;BME280;45711;50.108;13.712;2023-01-19T04:44:36;96681.03;;;-5.61;93.22
59831;BME280;45711;50.108;13.712;2023-01-19T04:47:01;96677.03;;;-5.70;93.55
59831;BME280;45711;50.108;13.712;2023-01-19T04:49:27;96686.03;;;-5.60;93.80
59831;BME280;45711;50.108;13.712;2023-01-19T04:51:54;96685.28;;;-5.80;93.46
59831;BME280;45711;50.108;13.712;2023-01-19T04:54:20;96685.22;;;-5.60;93.41
59831;BME280;45711;50.108;13.712;2023-01-19T04:56:46;96684.91;;;-5.32;92.97
59831;BME280;45711;50.108;13.712;2023-01-19T04:59:12;96694.88;;;-5.67;91.71
59831;BME280;45711;50.108;13.712;2023-01-19T05:01:37;96695.44;;;-5.59;93.77
59831;BME280;45711;50.108;13.712;2023-01-19T05:04:03;96702.59;;;-6.05;92.10
59831;BME280;45711;50.108;13.712;2023-01-19T05:06:31;96694.38;;;-5.96;93.62
59831;BME280;45711;50.108;13.712;2023-01-19T05:08:58;96700.59;;;-6.03;93.22
59831;BME280;45711;50.108;13.712;2023-01-19T05:11:24;96695.59;;;-6.12;92.93
59831;BME280;45711;50.108;13.712;2023-01-19T05:13:53;96700.41;;;-6.09;93.42
59831;BME280;45711;50.108;13.712;2023-01-19T05:16:18;96707.22;;;-6.08;93.41
59831;BME280;45711;50.108;13.712;2023-01-19T05:18:44;96711.41;;;-6.00;93.32
59831;BME280;45711;50.108;13.712;2023-01-19T05:21:10;96712.41;;;-6.01;93.39
59831;BME280;45711;50.108;13.712;2023-01-19T05:23:35;96723.84;;;-5.95;93.82
59831;BME280;45711;50.108;13.712;2023-01-19T05:26:03;96719.38;;;-5.82;93.34
59831;BME280;45711;50.108;13.712;2023-01-19T05:28:29;96723.03;;;-6.02;92.79
59831;BME280;45711;50.108;13.712;2023-01-19T05:30:55;96720.22;;;-6.14;92.94
59831;BME280;45711;50.108;13.712;2023-01-19T05:33:23;96728.28;;;-6.22;93.25
59831;BME280;45711;50.108;13.712;2023-01-19T05:35:49;96727.66;;;-6.18;93.63
59831;BME280;45711;50.108;13.712;2023-01-19T05:38:15;96736.66;;;-6.20;92.53
59831;BME280;45711;50.108;13.712;2023-01-19T05:40:41;96731.06;;;-6.17;92.60
59831;BME280;45711;50.108;13.712;2023-01-19T05:43:08;96730.25;;;-6.11;92.95
59831;BME280;45711;50.108;13.712;2023-01-19T05:45:33;96733.88;;;-6.12;92.95
59831;BME280;45711;50.108;13.712;2023-01-19T05:47:59;96737.88;;;-6.23;92.67
59831;BME280;45711;50.108;13.712;2023-01-19T05:50:37;96743.66;;;-6.01;92.32
59831;BME280;45711;50.108;13.712;2023-01-19T05:53:04;96750.59;;;-5.62;92.10
59831;BME280;45711;50.108;13.712;2023-01-19T05:55:30;96747.19;;;-5.04;94.24
59831;BME280;45711;50.108;13.712;2023-01-19T05:57:56;96749.50;;;-4.51;92.59
59831;BME280;45711;50.108;13.712;2023-01-19T06:00:23;96735.09;;;-4.60;90.48
59831;BME280;45711;50.108;13.712;2023-01-19T06:02:50;96740.78;;;-5.08;90.39
59831;BME280;45711;50.108;13.712;2023-01-19T06:05:16;96745.44;;;-5.23;91.23
59831;BME280;45711;50.108;13.712;2023-01-19T06:07:41;96744.59;;;-5.04;92.10
59831;BME280;45711;50.108;13.712;2023-01-19T06:10:10;96765.34;;;-5.22;91.40
59831;BME280;45711;50.108;13.712;2023-01-19T06:12:38;96761.72;;;-5.21;91.68
59831;BME280;45711;50.108;13.712;2023-01-19T06:15:05;96760.91;;;-5.22;91.51
59831;BME280;45711;50.108;13.712;2023-01-19T06:17:32;96761.81;;;-5.48;91.53
59831;BME280;45711;50.108;13.712;2023-01-19T06:19:58;96762.44;;;-5.79;91.44
59831;BME280;45711;50.108;13.712;2023-01-19T06:22:24;96765.44;;;-5.75;92.16
59831;BME280;45711;50.108;13.712;2023-01-19T06:24:52;96768.84;;;-5.68;92.49
59831;BME280;45711;50.108;13.712;2023-01-19T06:27:18;96759.31;;;-5.94;91.56
59831;BME280;45711;50.108;13.712;2023-01-19T06:29:43;96771.13;;;-5.98;92.66
59831;BME280;45711;50.108;13.712;2023-01-19T06:32:09;96775.16;;;-6.09;92.10
59831;BME280;45711;50.108;13.712;2023-01-19T06:34:36;96769.94;;;-6.09;92.72
59831;BME280;45711;50.108;13.712;2023-01-19T06:37:04;96775.94;;;-6.15;92.01
59831;BME280;45711;50.108;13.712;2023-01-19T06:39:30;96782.56;;;-6.13;92.01
59831;BME280;45711;50.108;13.712;2023-01-19T06:41:56;96787.94;;;-6.01;92.98
59831;BME280;45711;50.108;13.712;2023-01-19T06:44:21;96782.72;;;-6.14;92.08
59831;BME280;45711;50.108;13.712;2023-01-19T06:46:47;96779.34;;;-6.21;92.32
59831;BME280;45711;50.108;13.712;2023-01-19T06:49:13;96794.38;;;-6.17;91.98
59831;BME280;45711;50.108;13.712;2023-01-19T06:51:40;96789.56;;;-6.40;92.22
59831;BME280;45711;50.108;13.712;2023-01-19T06:54:05;96791.16;;;-6.39;92.31
59831;BME280;45711;50.108;13.712;2023-01-19T06:56:31;96793.56;;;-6.24;92.08
59831;BME280;45711;50.108;13.712;2023-01-19T06:58:57;96794.97;;;-6.21;91.97
59831;BME280;45711;50.108;13.712;2023-01-19T07:01:22;96800.00;;;-6.00;92.74
59831;BME280;45711;50.108;13.712;2023-01-19T07:03:48;96805.97;;;-6.26;91.42
59831;BME280;45711;50.108;13.712;2023-01-19T07:06:14;96801.56;;;-6.19;90.89
59831;BME280;45711;50.108;13.712;2023-01-19T07:08:41;96797.53;;;-6.48;91.15
59831;BME280;45711;50.108;13.712;2023-01-19T07:11:13;96809.56;;;-6.27;92.22
59831;BME280;45711;50.108;13.712;2023-01-19T07:13:39;96811.38;;;-6.34;91.98
59831;BME280;45711;50.108;13.712;2023-01-19T07:16:06;96817.59;;;-6.22;92.10
59831;BME280;45711;50.108;13.712;2023-01-19T07:18:32;96819.41;;;-6.29;92.39
59831;BME280;45711;50.108;13.712;2023-01-19T07:20:58;96814.59;;;-6.19;92.52
59831;BME280;45711;50.108;13.712;2023-01-19T07:23:24;96819.81;;;-6.12;91.57
59831;BME280;45711;50.108;13.712;2023-01-19T07:25:54;96819.22;;;-6.08;91.75
59831;BME280;45711;50.108;13.712;2023-01-19T07:28:19;96827.63;;;-6.12;90.86
59831;BME280;45711;50.108;13.712;2023-01-19T07:30:49;96825.59;;;-6.30;91.40
59831;BME280;45711;50.108;13.712;2023-01-19T07:33:16;96834.06;;;-5.95;91.52
59831;BME280;45711;50.108;13.712;2023-01-19T07:35:45;96836.41;;;-5.67;91.80
59831;BME280;45711;50.108;13.712;2023-01-19T07:38:10;96842.22;;;-5.71;91.25
59831;BME280;45711;50.108;13.712;2023-01-19T07:40:36;96837.63;;;-5.69;91.41
59831;BME280;45711;50.108;13.712;2023-01-19T07:43:03;96838.41;;;-5.75;90.91
59831;BME280;45711;50.108;13.712;2023-01-19T07:45:28;96844.22;;;-5.67;91.14
59831;BME280;45711;50.108;13.712;2023-01-19T07:47:54;96843.03;;;-5.51;91.25
59831;BME280;45711;50.108;13.712;2023-01-19T07:50:20;96848.78;;;-5.29;90.59
59831;BME280;45711;50.108;13.712;2023-01-19T07:52:49;96858.38;;;-5.03;90.32
59831;BME280;45711;50.108;13.712;2023-01-19T07:55:17;96857.00;;;-5.19;90.75
59831;BME280;45711;50.108;13.712;2023-01-19T07:57:43;96862.97;;;-5.05;89.96
59831;BME280;45711;50.108;13.712;2023-01-19T08:00:11;96868.38;;;-4.93;89.73
59831;BME280;45711;50.108;13.712;2023-01-19T08:02:38;96865.53;;;-4.78;90.23
59831;BME280;45711;50.108;13.712;2023-01-19T08:05:05;96865.34;;;-4.90;89.90
59831;BME280;45711;50.108;13.712;2023-01-19T08:07:32;96864.28;;;-4.76;90.31
59831;BME280;45711;50.108;13.712;2023-01-19T08:09:57;96862.38;;;-4.49;89.85
59831;BME280;45711;50.108;13.712;2023-01-19T08:12:23;96872.41;;;-4.08;88.51
59831;BME280;45711;50.108;13.712;2023-01-19T08:14:49;96880.44;;;-3.77;87.62
59831;BME280;45711;50.108;13.712;2023-01-19T08:17:16;96874.09;;;-3.63;88.53
59831;BME280;45711;50.108;13.712;2023-01-19T08:19:41;96873.00;;;-3.81;87.20
59831;BME280;45711;50.108;13.712;2023-01-19T08:22:07;96870.41;;;-3.56;86.41
59831;BME280;45711;50.108;13.712;2023-01-19T08:24:33;96868.31;;;-2.85;85.43
59831;BME280;45711;50.108;13.712;2023-01-19T08:26:59;96870.94;;;-2.67;84.02
59831;BME280;45711;50.108;13.712;2023-01-19T08:29:25;96888.41;;;-2.61;85.45
59831;BME280;45711;50.108;13.712;2023-01-19T08:31:50;96890.38;;;-2.56;82.61
59831;BME280;45711;50.108;13.712;2023-01-19T08:34:18;96891.19;;;-2.74;81.83
59831;BME280;45711;50.108;13.712;2023-01-19T08:36:44;96888.94;;;-2.40;82.11
59831;BME280;45711;50.108;13.712;2023-01-19T08:39:10;96888.25;;;-2.47;81.90
59831;BME280;45711;50.108;13.712;2023-01-19T08:41:39;96891.97;;;-2.55;81.80
59831;BME280;45711;50.108;13.712;2023-01-19T08:44:04;96897.94;;;-2.48;81.45
59831;BME280;45711;50.108;13.712;2023-01-19T08:46:30;96901.69;;;-2.25;81.73
59831;BME280;45711;50.108;13.712;2023-01-19T08:48:56;96911.81;;;-1.99;81.08
59831;BME280;45711;50.108;13.712;2023-01-19T08:51:23;96903.28;;;-2.24;82.33
59831;BME280;45711;50.108;13.712;2023-01-19T08:53:48;96906.28;;;-2.09;82.02
59831;BME280;45711;50.108;13.712;2023-01-19T08:56:17;96917.72;;;-1.62;80.66
59831;BME280;45711;50.108;13.712;2023-01-19T08:58:46;96918.13;;;-1.35;79.37
59831;BME280;45711;50.108;13.712;2023-01-19T09:01:14;96920.50;;;-1.57;80.54
59831;BME280;45711;50.108;13.712;2023-01-19T09:03:41;96934.97;;;-1.54;79.79
59831;BME280;45711;50.108;13.712;2023-01-19T09:06:16;96933.78;;;-0.93;87.73
59831;BME280;45711;50.108;13.712;2023-01-19T09:08:44;96940.84;;;-0.58;87.92
59831;BME280;45711;50.108;13.712;2023-01-19T09:11:14;96938.13;;;-0.87;83.75
59831;BME280;45711;50.108;13.712;2023-01-19T09:13:40;96933.06;;;-0.53;86.25
59831;BME280;45711;50.108;13.712;2023-01-19T09:16:07;96943.94;;;-0.85;81.04
59831;BME280;45711;50.108;13.712;2023-01-19T09:18:34;96935.69;;;-0.53;84.06
59831;BME280;45711;50.108;13.712;2023-01-19T09:21:00;96931.94;;;-1.39;79.73
59831;BME280;45711;50.108;13.712;2023-01-19T09:23:26;96927.41;;;-1.62;83.85
59831;BME280;45711;50.108;13.712;2023-01-19T09:26:00;96929.72;;;-1.54;79.85
59831;BME280;45711;50.108;13.712;2023-01-19T09:28:27;96930.81;;;-1.20;83.78
59831;BME280;45711;50.108;13.712;2023-01-19T09:30:53;96929.09;;;-1.26;79.28
59831;BME280;45711;50.108;13.712;2023-01-19T09:33:19;96929.09;;;-1.14;79.93
59831;BME280;45711;50.108;13.712;2023-01-19T09:35:46;96929.44;;;-0.99;88.11
59831;BME280;45711;50.108;13.712;2023-01-19T09:38:13;96922.38;;;-1.75;81.48
59831;BME280;45711;50.108;13.712;2023-01-19T09:40:41;96917.22;;;-1.05;88.28
59831;BME280;45711;50.108;13.712;2023-01-19T09:43:15;96919.38;;;-1.14;82.03
59831;BME280;45711;50.108;13.712;2023-01-19T09:45:46;96913.56;;;-1.28;81.93
59831;BME280;45711;50.108;13.712;2023-01-19T09:48:24;96906.38;;;-1.20;79.71
59831;BME280;45711;50.108;13.712;2023-01-19T09:50:53;96907.84;;;-0.89;81.41
59831;BME280;45711;50.108;13.712;2023-01-19T09:53:29;96900.09;;;-0.84;87.32
59831;BME280;45711;50.108;13.712;2023-01-19T09:55:57;96895.72;;;-1.49;81.43
59831;BME280;45711;50.108;13.712;2023-01-19T09:58:24;96896.09;;;-1.10;82.66
59831;BME280;45711;50.108;13.712;2023-01-19T10:00:54;96885.03;;;-1.01;84.75
59831;BME280;45711;50.108;13.712;2023-01-19T10:03:22;96893.84;;;-0.43;86.01
59831;BME280;45711;50.108;13.712;2023-01-19T10:05:51;96884.31;;;-0.84;83.68
59831;BME280;45711;50.108;13.712;2023-01-19T10:08:29;96886.75;;;-0.94;81.60
59831;BME280;45711;50.108;13.712;2023-01-19T10:10:57;96893.34;;;-0.28;90.47
59831;BME280;45711;50.108;13.712;2023-01-19T10:13:35;96889.72;;;0.18;90.54
59831;BME280;45711;50.108;13.712;2023-01-19T10:16:17;96897.69;;;-0.74;78.77
59831;BME280;45711;50.108;13.712;2023-01-19T10:18:47;96901.22;;;-0.92;81.07
59831;BME280;45711;50.108;13.712;2023-01-19T10:21:20;96904.53;;;-0.73;85.13
59831;BME280;45711;50.108;13.712;2023-01-19T10:23:50;96918.44;;;-0.09;90.34
59831;BME280;45711;50.108;13.712;2023-01-19T10:26:23;96916.06;;;-0.62;79.03
59831;BME280;45711;50.108;13.712;2023-01-19T10:28:56;96922.34;;;-0.52;80.49
59831;BME280;45711;50.108;13.712;2023-01-19T10:31:23;96921.13;;;-0.32;86.55
59831;BME280;45711;50.108;13.712;2023-01-19T10:33:52;96922.09;;;-0.10;84.20
59831;BME280;45711;50.108;13.712;2023-01-19T10:36:20;96918.00;;;-0.17;84.28
59831;BME280;45711;50.108;13.712;2023-01-19T10:38:46;96921.09;;;-0.61;83.94
59831;BME280;45711;50.108;13.712;2023-01-19T10:41:17;96926.13;;;-0.19;85.38
59831;BME280;45711;50.108;13.712;2023-01-19T10:43:46;96930.88;;;0.24;83.97
59831;BME280;45711;50.108;13.712;2023-01-19T10:46:24;96929.19;;;-0.10;79.08
59831;BME280;45711;50.108;13.712;2023-01-19T10:48:52;96930.03;;;0.07;86.58
59831;BME280;45711;50.108;13.712;2023-01-19T10:51:19;96926.84;;;-0.35;79.39
59831;BME280;45711;50.108;13.712;2023-01-19T10:53:59;96933.38;;;-0.38;83.99
59831;BME280;45711;50.108;13.712;2023-01-19T10:56:29;96936.06;;;-1.08;79.02
59831;BME280;45711;50.108;13.712;2023-01-19T10:58:57;96932.28;;;-0.65;82.58
59831;BME280;45711;50.108;13.712;2023-01-19T11:01:26;96934.19;;;-0.37;81.83
59831;BME280;45711;50.108;13.712;2023-01-19T11:03:53;96933.75;;;-0.58;79.14
59831;BME280;45711;50.108;13.712;2023-01-19T11:06:27;96936.72;;;-0.54;79.59
59831;BME280;45711;50.108;13.712;2023-01-19T11:09:09;96935.22;;;-0.38;85.97
59831;BME280;45711;50.108;13.712;2023-01-19T11:11:47;96943.66;;;0.04;88.65
59831;BME280;45711;50.108;13.712;2023-01-19T11:14:17;96950.81;;;-0.08;84.17
59831;BME280;45711;50.108;13.712;2023-01-19T11:16:47;96950.00;;;-0.09;78.19
59831;BME280;45711;50.108;13.712;2023-01-19T11:19:23;96953.72;;;0.36;84.34
59831;BME280;45711;50.108;13.712;2023-01-19T11:21:49;96950.28;;;0.35;83.92
59831;BME280;45711;50.108;13.712;2023-01-19T11:24:15;96949.03;;;0.55;86.98
59831;BME280;45711;50.108;13.712;2023-01-19T11:26:43;96935.47;;;0.46;79.11
59831;BME280;45711;50.108;13.712;2023-01-19T11:30:13;96938.13;;;0.80;85.52
59831;BME280;45711;50.108;13.712;2023-01-19T11:34:20;96938.13;;;-0.23;76.75
59831;BME280;45711;50.108;13.712;2023-01-19T11:36:05;96934.59;;;-1.04;79.71
59831;BME280;45711;50.108;13.712;2023-01-19T11:38:39;96926.50;;;-0.91;80.73
59831;BME280;45711;50.108;13.712;2023-01-19T11:41:15;96921.00;;;-0.78;82.19
59831;BME280;45711;50.108;13.712;2023-01-19T11:43:45;96922.41;;;-0.35;83.97
59831;BME280;45711;50.108;13.712;2023-01-19T11:46:12;96916.72;;;-0.43;79.33
59831;BME280;45711;50.108;13.712;2023-01-19T11:48:45;96918.66;;;-0.51;77.78
59831;BME280;45711;50.108;13.712;2023-01-19T11:51:22;96913.41;;;-0.10;81.39
59831;BME280;45711;50.108;13.712;2023-01-19T11:54:18;96907.72;;;-0.19;78.20
59831;BME280;45711;50.108;13.712;2023-01-19T11:56:46;96910.22;;;-0.12;80.50
59831;BME280;45711;50.108;13.712;2023-01-19T11:59:13;96920.69;;;0.28;87.39
59831;BME280;45711;50.108;13.712;2023-01-19T12:01:44;96910.41;;;-0.02;83.83
59831;BME280;45711;50.108;13.712;2023-01-19T12:04:19;96911.91;;;-0.35;79.03
59831;BME280;45711;50.108;13.712;2023-01-19T12:06:55;96919.88;;;-0.30;77.79
59831;BME280;45711;50.108;13.712;2023-01-19T12:09:24;96910.53;;;0.20;81.39
59831;BME280;45711;50.108;13.712;2023-01-19T12:11:54;96912.66;;;0.68;85.34
59831;BME280;45711;50.108;13.712;2023-01-19T12:14:23;96919.63;;;0.74;78.18
59831;BME280;45711;50.108;13.712;2023-01-19T12:16:55;96911.66;;;0.24;76.27
59831;BME280;45711;50.108;13.712;2023-01-19T12:19:39;96906.75;;;0.44;83.97
59831;BME280;45711;50.108;13.712;2023-01-19T12:22:14;96905.53;;;0.52;82.54
59831;BME280;45711;50.108;13.712;2023-01-19T12:24:46;96906.19;;;0.59;77.16
59831;BME280;45711;50.108;13.712;2023-01-19T12:27:21;96905.06;;;0.55;80.37
59831;BME280;45711;50.108;13.712;2023-01-19T12:29:53;96910.69;;;0.13;77.22
59831;BME280;45711;50.108;13.712;2023-01-19T12:32:31;96903.91;;;-0.11;79.97
59831;BME280;45711;50.108;13.712;2023-01-19T12:34:58;96908.34;;;0.45;82.67
59831;BME280;45711;50.108;13.712;2023-01-19T12:37:32;96909.69;;;0.03;78.18
59831;BME280;45711;50.108;13.712;2023-01-19T12:40:00;96894.69;;;0.32;83.88
59831;BME280;45711;50.108;13.712;2023-01-19T12:42:27;96895.34;;;0.72;84.69
59831;BME280;45711;50.108;13.712;2023-01-19T12:45:04;96894.84;;;0.92;84.01
59831;BME280;45711;50.108;13.712;2023-01-19T12:47:32;96894.78;;;0.54;78.08
59831;BME280;45711;50.108;13.712;2023-01-19T12:50:04;96898.19;;;0.37;79.18
59831;BME280;45711;50.108;13.712;2023-01-19T12:52:32;96897.97;;;0.56;79.73
59831;BME280;45711;50.108;13.712;2023-01-19T12:55:01;96888.31;;;0.44;81.50
59831;BME280;45711;50.108;13.712;2023-01-19T12:57:33;96892.06;;;0.82;81.34
59831;BME280;45711;50.108;13.712;2023-01-19T13:00:05;96887.34;;;0.84;82.00